IFJ31T LPCS-LPCS
Flight info
| Callsign | IFJ31T |
|---|---|
| Flight time | N/A |
| Altitude | 3000 |
| Route | 384650N0092956W 385741N0092504W 384650N0092956W |
| Aircraft | PIVI/L-GSY/S |
Departure
| Time | 2026-04-25 18:46 |
|---|---|
| Airport | Cascais Airport (LPCS) |
Arrival
| Time | N/A |
|---|---|
| Airport | Cascais Airport (LPCS) |
| Time | Latitude | Longitude | Altitude | Speed | Heading |
|---|---|---|---|---|---|
| 2026-04-25 18:15 | 38.72203 | -9.35718 | 300 ft | 0 kts | 72° |
| 2026-04-25 18:40 | 38.72197 | -9.35738 | 273 ft | 5 kts | 264° |
| 2026-04-25 18:40 | 38.72228 | -9.35746 | 299 ft | 5 kts | 0° |
| 2026-04-25 18:40 | 38.72257 | -9.35747 | 300 ft | 6 kts | 7° |
| 2026-04-25 18:40 | 38.72298 | -9.35732 | 302 ft | 4 kts | 73° |
| 2026-04-25 18:41 | 38.72309 | -9.35681 | 302 ft | 8 kts | 73° |
| 2026-04-25 18:41 | 38.72326 | -9.35607 | 304 ft | 7 kts | 72° |
| 2026-04-25 18:41 | 38.72337 | -9.35557 | 306 ft | 4 kts | 72° |
| 2026-04-25 18:41 | 38.72338 | -9.35553 | 306 ft | 0 kts | 73° |
| 2026-04-25 18:42 | 38.72338 | -9.35552 | 306 ft | 1 kts | 73° |
| 2026-04-25 18:43 | 38.72347 | -9.35517 | 308 ft | 9 kts | 73° |
| 2026-04-25 18:43 | 38.72323 | -9.35454 | 309 ft | 12 kts | 167° |
| 2026-04-25 18:43 | 38.72230 | -9.35420 | 305 ft | 15 kts | 163° |
| 2026-04-25 18:43 | 38.72123 | -9.35381 | 303 ft | 16 kts | 165° |
| 2026-04-25 18:44 | 38.72017 | -9.35343 | 301 ft | 16 kts | 164° |
| 2026-04-25 18:44 | 38.71906 | -9.35302 | 296 ft | 18 kts | 161° |
| 2026-04-25 18:44 | 38.71840 | -9.35279 | 295 ft | 4 kts | 343° |
| 2026-04-25 18:44 | 38.71843 | -9.35281 | 294 ft | 0 kts | 345° |
| 2026-04-25 18:45 | 38.71914 | -9.35307 | 296 ft | 32 kts | 347° |
| 2026-04-25 18:45 | 38.72237 | -9.35431 | 373 ft | 59 kts | 341° |
| 2026-04-25 18:45 | 38.72612 | -9.35647 | 587 ft | 58 kts | 340° |
| 2026-04-25 18:45 | 38.73007 | -9.35832 | 783 ft | 68 kts | 346° |
| 2026-04-25 18:46 | 38.73489 | -9.36007 | 977 ft | 76 kts | 347° |
| 2026-04-25 18:46 | 38.73955 | -9.36447 | 1004 ft | 87 kts | 316° |
| 2026-04-25 18:46 | 38.74140 | -9.37123 | 1074 ft | 80 kts | 285° |
| 2026-04-25 18:46 | 38.74099 | -9.37858 | 1029 ft | 86 kts | 276° |
| 2026-04-25 18:47 | 38.73966 | -9.38604 | 994 ft | 86 kts | 266° |
| 2026-04-25 18:47 | 38.73761 | -9.39324 | 1038 ft | 85 kts | 261° |
| 2026-04-25 18:47 | 38.73554 | -9.40044 | 1057 ft | 86 kts | 263° |
| 2026-04-25 18:47 | 38.73351 | -9.40781 | 1071 ft | 87 kts | 265° |
| 2026-04-25 18:48 | 38.73325 | -9.41509 | 1053 ft | 82 kts | 288° |
| 2026-04-25 18:48 | 38.73450 | -9.42222 | 1084 ft | 82 kts | 298° |
| 2026-04-25 18:48 | 38.73611 | -9.42892 | 1013 ft | 73 kts | 302° |
| 2026-04-25 18:48 | 38.73763 | -9.43484 | 1023 ft | 70 kts | 301° |
| 2026-04-25 18:49 | 38.73900 | -9.44096 | 1010 ft | 72 kts | 298° |
| 2026-04-25 18:49 | 38.73992 | -9.44708 | 1095 ft | 70 kts | 290° |
| 2026-04-25 18:49 | 38.73995 | -9.45342 | 1284 ft | 72 kts | 268° |
| 2026-04-25 18:49 | 38.74094 | -9.46031 | 1406 ft | 86 kts | 297° |
| 2026-04-25 18:50 | 38.74486 | -9.46637 | 1473 ft | 92 kts | 313° |
| 2026-04-25 18:50 | 38.74944 | -9.47184 | 1465 ft | 90 kts | 319° |
| 2026-04-25 18:50 | 38.75428 | -9.47665 | 1440 ft | 87 kts | 323° |
| 2026-04-25 18:50 | 38.75906 | -9.48103 | 1475 ft | 84 kts | 324° |
| 2026-04-25 18:51 | 38.76406 | -9.48504 | 1474 ft | 84 kts | 328° |
| 2026-04-25 18:51 | 38.76579 | -9.48627 | 1481 ft | 84 kts | 330° |
| 2026-04-25 18:51 | 38.77470 | -9.49085 | 1529 ft | 78 kts | 339° |
| 2026-04-25 18:51 | 38.77976 | -9.49279 | 1687 ft | 79 kts | 340° |
| 2026-04-25 18:52 | 38.78534 | -9.49450 | 1810 ft | 83 kts | 355° |
| 2026-04-25 18:52 | 38.79092 | -9.49260 | 2000 ft | 86 kts | 24° |
| 2026-04-25 18:52 | 38.79617 | -9.48894 | 2195 ft | 87 kts | 30° |
| 2026-04-25 18:52 | 38.80112 | -9.48458 | 2346 ft | 87 kts | 33° |
| 2026-04-25 18:53 | 38.80590 | -9.48011 | 2539 ft | 83 kts | 33° |
| 2026-04-25 18:53 | 38.81058 | -9.47574 | 2694 ft | 86 kts | 34° |
| 2026-04-25 18:53 | 38.81569 | -9.47173 | 2842 ft | 88 kts | 28° |
| 2026-04-25 18:53 | 38.82093 | -9.46757 | 2967 ft | 90 kts | 30° |
| 2026-04-25 18:54 | 38.83140 | -9.45946 | 2987 ft | 89 kts | 26° |
| 2026-04-25 18:54 | 38.83688 | -9.45580 | 3024 ft | 87 kts | 25° |
| 2026-04-25 18:54 | 38.84236 | -9.45211 | 2991 ft | 93 kts | 27° |
| 2026-04-25 18:55 | 38.84768 | -9.44811 | 2922 ft | 82 kts | 29° |
| 2026-04-25 18:55 | 38.85204 | -9.44449 | 2913 ft | 67 kts | 30° |
| 2026-04-25 18:55 | 38.85602 | -9.44144 | 2870 ft | 67 kts | 27° |
| 2026-04-25 18:55 | 38.86000 | -9.43846 | 2842 ft | 66 kts | 27° |
| 2026-04-25 18:56 | 38.86396 | -9.43570 | 2811 ft | 61 kts | 22° |
| 2026-04-25 18:56 | 38.86773 | -9.43329 | 2874 ft | 64 kts | 21° |
| 2026-04-25 18:56 | 38.87196 | -9.43099 | 2894 ft | 69 kts | 18° |
| 2026-04-25 18:56 | 38.87724 | -9.42847 | 2884 ft | 89 kts | 17° |
| 2026-04-25 18:57 | 38.88304 | -9.42605 | 2852 ft | 88 kts | 15° |
| 2026-04-25 18:57 | 38.88870 | -9.42372 | 2814 ft | 77 kts | 16° |
| 2026-04-25 18:57 | 38.89313 | -9.42154 | 2773 ft | 57 kts | 19° |
| 2026-04-25 18:57 | 38.89430 | -9.42092 | 2760 ft | 56 kts | 17° |
| 2026-04-25 18:58 | 38.90062 | -9.41798 | 2774 ft | 61 kts | 12° |
| 2026-04-25 18:58 | 38.90988 | -9.41530 | 2762 ft | 87 kts | 6° |
| 2026-04-25 18:58 | 38.91592 | -9.41417 | 2708 ft | 87 kts | 5° |
| 2026-04-25 18:59 | 38.92701 | -9.41218 | 2624 ft | 69 kts | 4° |
| 2026-04-25 18:59 | 38.93572 | -9.41109 | 2588 ft | 60 kts | 1° |
| 2026-04-25 19:00 | 38.94379 | -9.40957 | 2519 ft | 59 kts | 6° |
| 2026-04-25 19:00 | 38.94782 | -9.40842 | 2487 ft | 61 kts | 10° |
| 2026-04-25 19:01 | 38.95854 | -9.40595 | 2492 ft | 82 kts | 5° |
| 2026-04-25 19:01 | 38.96420 | -9.40490 | 2484 ft | 81 kts | 1° |
| 2026-04-25 19:01 | 38.96964 | -9.40634 | 2453 ft | 82 kts | 328° |
| 2026-04-25 19:01 | 38.97373 | -9.41134 | 2459 ft | 80 kts | 307° |
| 2026-04-25 19:02 | 38.98015 | -9.42263 | 2759 ft | 77 kts | 300° |
| 2026-04-25 19:02 | 38.98188 | -9.42647 | 2888 ft | 72 kts | 297° |
| 2026-04-25 19:02 | 38.98445 | -9.43477 | 3037 ft | 77 kts | 287° |
| 2026-04-25 19:03 | 38.98719 | -9.44456 | 2949 ft | 87 kts | 289° |
| 2026-04-25 19:03 | 38.99052 | -9.45533 | 2945 ft | 65 kts | 292° |
| 2026-04-25 19:03 | 38.99161 | -9.45866 | 2926 ft | 57 kts | 290° |
| 2026-04-25 19:04 | 38.99385 | -9.46658 | 2792 ft | 42 kts | 286° |
| 2026-04-25 19:04 | 38.99518 | -9.47171 | 2522 ft | 72 kts | 289° |
| 2026-04-25 19:05 | 38.99903 | -9.48406 | 2954 ft | 79 kts | 292° |
| 2026-04-25 19:05 | 39.00275 | -9.49515 | 3059 ft | 40 kts | 292° |
| 2026-04-25 19:05 | 39.00280 | -9.50071 | 2248 ft | 98 kts | 259° |
| 2026-04-25 19:06 | 39.00155 | -9.50720 | 2715 ft | 64 kts | 252° |
| 2026-04-25 19:06 | 38.99918 | -9.51601 | 2681 ft | 19 kts | 342° |
| 2026-04-25 19:06 | 38.99677 | -9.51372 | 2055 ft | 81 kts | 174° |
| 2026-04-25 19:07 | 38.98902 | -9.50989 | 2718 ft | 62 kts | 149° |
| 2026-04-25 19:07 | 38.98518 | -9.50634 | 2911 ft | 72 kts | 143° |
| 2026-04-25 19:08 | 38.97717 | -9.50305 | 3012 ft | 93 kts | 166° |
| 2026-04-25 19:08 | 38.97522 | -9.50176 | 2909 ft | 87 kts | 149° |
| 2026-04-25 19:09 | 38.96952 | -9.49406 | 1095 ft | 4 kts | 0° |
| 2026-04-25 19:09 | 38.96951 | -9.49387 | 4 ft | 0 kts | 232° |